createdAt,value
2019-03-18T00:03:19.233Z,8.10
2019-03-18T00:08:22.885Z,8.00
2019-03-18T00:13:26.547Z,7.90
2019-03-18T00:18:30.215Z,8.10
2019-03-18T00:23:33.867Z,8.00
2019-03-18T00:28:37.529Z,8.00
2019-03-18T00:33:41.200Z,8.00
2019-03-18T00:38:45.367Z,8.00
2019-03-18T00:43:49.021Z,8.00
2019-03-18T00:48:52.700Z,8.10
2019-03-18T00:53:56.646Z,8.00
2019-03-18T00:59:00.445Z,7.90
2019-03-18T01:04:04.266Z,8.00
2019-03-18T01:09:08.142Z,7.90
2019-03-18T01:14:11.800Z,7.70
2019-03-18T01:19:15.497Z,7.60
2019-03-18T01:24:19.473Z,7.60
2019-03-18T01:29:23.505Z,7.60
2019-03-18T01:34:27.402Z,7.60
2019-03-18T01:39:31.025Z,7.60
2019-03-18T01:44:34.696Z,7.60
2019-03-18T01:49:38.577Z,7.50
2019-03-18T01:54:42.229Z,7.30
2019-03-18T01:59:45.883Z,7.20
2019-03-18T02:04:49.796Z,7.20
2019-03-18T02:09:53.442Z,7.30
2019-03-18T02:14:57.106Z,7.20
2019-03-18T02:20:00.762Z,7.10
2019-03-18T02:25:04.993Z,7.20
2019-03-18T02:30:08.788Z,7.40
2019-03-18T02:35:12.509Z,7.30
2019-03-18T02:40:16.377Z,7.20
2019-03-18T02:45:20.096Z,7.10
2019-03-18T02:50:23.767Z,7.20
2019-03-18T02:55:27.440Z,7.10
2019-03-18T03:00:31.092Z,7.10
2019-03-18T03:05:34.740Z,7.10
2019-03-18T03:10:38.722Z,7.10
2019-03-18T03:15:42.643Z,7.10
2019-03-18T03:20:46.720Z,7.10
2019-03-18T03:25:50.741Z,7.00
2019-03-18T03:30:54.404Z,7.00
2019-03-18T03:35:58.555Z,7.00
2019-03-18T03:41:02.754Z,7.00
2019-03-18T03:46:06.407Z,6.80
2019-03-18T03:51:10.429Z,6.80
2019-03-18T03:56:14.372Z,6.80
2019-03-18T04:01:18.002Z,6.70
2019-03-18T04:06:22.039Z,6.70
2019-03-18T04:11:26.259Z,6.70
2019-03-18T04:16:30.256Z,6.50
2019-03-18T04:21:34.209Z,6.30
2019-03-18T04:26:37.863Z,6.30
2019-03-18T04:31:41.534Z,6.20
2019-03-18T04:36:45.432Z,6.10
2019-03-18T04:41:49.085Z,6.00
2019-03-18T04:46:52.970Z,6.00
2019-03-18T04:51:56.705Z,5.90
2019-03-18T04:57:00.383Z,5.80
2019-03-18T05:02:04.065Z,5.70
2019-03-18T05:07:07.719Z,5.60
2019-03-18T05:12:11.657Z,5.60
2019-03-18T05:17:26.137Z,5.50
2019-03-18T05:22:20.932Z,5.50
2019-03-18T05:27:24.866Z,5.30
2019-03-18T05:32:28.530Z,5.40
2019-03-18T05:37:32.178Z,5.40
2019-03-18T05:42:36.120Z,5.40
2019-03-18T05:47:40.133Z,5.50
2019-03-18T05:52:44.008Z,5.70
2019-03-18T05:57:47.672Z,5.70
2019-03-18T06:02:51.366Z,5.80
2019-03-18T06:07:55.021Z,5.70
2019-03-18T06:12:58.830Z,5.60
2019-03-18T06:18:02.779Z,5.60
2019-03-18T06:23:06.436Z,5.60
2019-03-18T06:28:10.165Z,6.00
2019-03-18T06:33:13.842Z,6.00
2019-03-18T06:38:17.527Z,6.20
2019-03-18T06:43:21.177Z,6.40
2019-03-18T06:48:25.125Z,6.50
2019-03-18T06:53:28.780Z,6.60
2019-03-18T06:58:33.408Z,6.60
2019-03-18T07:03:37.049Z,6.70
2019-03-18T07:08:40.682Z,6.70
2019-03-18T07:13:44.598Z,6.90
2019-03-18T07:18:48.517Z,6.80
2019-03-18T07:23:52.199Z,6.90
2019-03-18T07:28:55.945Z,7.00
2019-03-18T07:33:59.959Z,7.10
2019-03-18T07:39:04.817Z,7.20
2019-03-18T07:44:08.765Z,7.30
2019-03-18T07:49:14.326Z,7.40
2019-03-18T07:54:18.306Z,7.50
2019-03-18T07:59:22.057Z,7.50
2019-03-18T08:04:36.862Z,7.60
2019-03-18T08:09:31.467Z,7.70
2019-03-18T08:14:35.491Z,10.30
2019-03-18T08:19:39.593Z,12.20
2019-03-18T08:24:43.620Z,12.50
2019-03-18T08:29:47.369Z,13.60
2019-03-18T08:34:51.068Z,14.30
2019-03-18T08:39:54.810Z,14.50
2019-03-18T08:44:58.534Z,15.20
2019-03-18T08:50:02.541Z,15.50
2019-03-18T08:55:06.410Z,16.10
2019-03-18T09:00:10.813Z,15.40
2019-03-18T09:05:14.527Z,15.80
2019-03-18T09:10:18.449Z,16.30
2019-03-18T09:15:22.313Z,16.90
2019-03-18T09:20:26.037Z,18.70
2019-03-18T09:25:29.744Z,18.20
2019-03-18T09:30:33.457Z,13.90
2019-03-18T09:35:37.158Z,11.70
2019-03-18T09:40:40.948Z,10.80
2019-03-18T09:45:44.670Z,9.60
2019-03-18T09:50:48.367Z,9.30
2019-03-18T09:55:55.166Z,9.50
2019-03-18T10:00:58.977Z,9.40
2019-03-18T10:06:02.706Z,9.20
2019-03-18T10:11:06.442Z,9.40
2019-03-18T10:16:10.257Z,9.60
2019-03-18T10:21:13.978Z,9.50
2019-03-18T10:26:17.701Z,9.60
2019-03-18T10:31:21.423Z,9.60
2019-03-18T10:36:25.433Z,9.50
2019-03-18T10:41:29.177Z,9.40
2019-03-18T10:46:32.897Z,9.40
2019-03-18T10:51:36.610Z,9.60
2019-03-18T10:56:41.338Z,10.40
2019-03-18T11:01:45.286Z,11.10
2019-03-18T11:06:48.966Z,11.40
2019-03-18T11:11:52.933Z,11.00
2019-03-18T11:16:56.650Z,10.70
2019-03-18T11:22:00.394Z,10.00
2019-03-18T11:27:04.119Z,9.70
2019-03-18T11:32:07.810Z,9.70
2019-03-18T11:37:11.577Z,10.00
2019-03-18T11:42:15.265Z,10.30
2019-03-18T11:47:18.993Z,11.30
2019-03-18T11:52:23.067Z,13.20
2019-03-18T11:57:26.774Z,12.00
2019-03-18T12:02:30.488Z,10.40
2019-03-18T12:07:34.235Z,11.90
2019-03-18T12:12:37.930Z,12.10
2019-03-18T12:17:41.632Z,11.20
2019-03-18T12:22:45.374Z,10.90
2019-03-18T12:27:49.097Z,11.40
2019-03-18T12:32:53.022Z,10.60
2019-03-18T12:37:56.797Z,10.20
2019-03-18T12:43:00.653Z,10.00
2019-03-18T12:48:04.745Z,9.90
2019-03-18T12:53:09.089Z,10.70
2019-03-18T12:58:12.803Z,15.40
2019-03-18T13:03:29.488Z,18.80
2019-03-18T13:08:33.242Z,17.90
2019-03-18T13:13:37.259Z,14.90
2019-03-18T13:18:41.062Z,15.20
2019-03-18T13:23:44.786Z,15.80
2019-03-18T13:28:48.800Z,16.10
2019-03-18T13:33:52.460Z,14.30
2019-03-18T13:38:56.457Z,12.90
2019-03-18T13:44:00.125Z,10.90
2019-03-18T13:49:03.783Z,9.10
2019-03-18T13:54:07.430Z,8.40
2019-03-18T13:59:11.418Z,10.10
2019-03-18T14:04:15.109Z,14.90
2019-03-18T14:09:18.876Z,18.70
2019-03-18T14:14:22.534Z,18.20
2019-03-18T14:19:26.205Z,14.80
2019-03-18T14:24:29.876Z,12.50
2019-03-18T14:29:33.534Z,11.70
2019-03-18T14:34:37.234Z,13.80
2019-03-18T14:39:41.162Z,12.90
2019-03-18T14:44:44.891Z,11.50
2019-03-18T14:49:48.593Z,13.40
2019-03-18T14:54:52.529Z,13.60
2019-03-18T14:59:56.460Z,12.80
2019-03-18T15:05:00.384Z,13.80
2019-03-18T15:10:04.635Z,13.30
2019-03-18T15:15:10.146Z,13.30
2019-03-18T15:20:14.209Z,13.70
2019-03-18T15:25:19.786Z,14.50
2019-03-18T15:30:23.818Z,14.20
2019-03-18T15:35:27.546Z,13.50
2019-03-18T15:40:31.457Z,12.30
2019-03-18T15:45:35.534Z,11.30
2019-03-18T15:50:39.649Z,10.60
2019-03-18T15:55:43.361Z,11.40
2019-03-18T16:00:47.035Z,13.00
2019-03-18T16:05:50.762Z,12.80
2019-03-18T16:10:54.490Z,13.20
2019-03-18T16:15:58.434Z,13.10
2019-03-18T16:21:02.085Z,13.10
2019-03-18T16:26:05.805Z,12.90
2019-03-18T16:31:09.458Z,11.50
2019-03-18T16:36:13.134Z,10.60
2019-03-18T16:41:17.066Z,10.80
2019-03-18T16:46:20.742Z,10.50
2019-03-18T16:51:24.773Z,10.00
2019-03-18T16:56:28.445Z,9.50
2019-03-18T17:01:32.093Z,9.30
2019-03-18T17:06:37.952Z,9.10
2019-03-18T17:11:41.441Z,9.20
2019-03-18T17:16:45.122Z,9.10
2019-03-18T17:21:48.785Z,9.00
2019-03-18T17:26:52.459Z,8.80
2019-03-18T17:31:56.141Z,8.60
2019-03-18T17:36:59.785Z,8.40
2019-03-18T17:42:03.463Z,8.30
2019-03-18T17:47:07.766Z,8.20
2019-03-18T17:52:11.556Z,8.10
2019-03-18T17:57:15.253Z,8.00
2019-03-18T18:02:18.919Z,7.90
2019-03-18T18:07:22.594Z,7.80
2019-03-18T18:12:26.679Z,7.60
2019-03-18T18:17:30.402Z,7.50
2019-03-18T18:22:34.049Z,7.50
2019-03-18T18:27:37.722Z,7.50
2019-03-18T18:32:42.306Z,7.30
2019-03-18T18:37:45.996Z,7.20
2019-03-18T18:42:49.697Z,7.10
2019-03-18T18:47:53.725Z,6.90
2019-03-18T18:52:57.519Z,6.90
2019-03-18T18:58:01.289Z,6.90
2019-03-18T19:03:05.149Z,6.70
2019-03-18T19:08:09.119Z,6.60
2019-03-18T19:13:12.812Z,6.50
2019-03-18T19:18:16.505Z,6.60
2019-03-18T19:23:20.267Z,6.60
2019-03-18T19:28:24.533Z,6.70
2019-03-18T19:33:28.264Z,6.80
2019-03-18T19:38:32.312Z,6.90
2019-03-18T19:43:36.400Z,6.80
2019-03-18T19:48:40.129Z,6.90
2019-03-18T19:53:49.037Z,6.80
2019-03-18T19:58:49.195Z,6.80
2019-03-18T20:03:52.889Z,6.80
2019-03-18T20:08:56.619Z,6.60
2019-03-18T20:14:00.276Z,6.50
2019-03-18T20:19:04.143Z,6.50
2019-03-18T20:24:07.908Z,6.50
2019-03-18T20:29:11.711Z,6.60
2019-03-18T20:34:15.448Z,6.50
2019-03-18T20:39:19.165Z,6.30
2019-03-18T20:44:23.086Z,6.10
2019-03-18T20:49:26.894Z,6.00
2019-03-18T20:54:30.644Z,6.00
2019-03-18T20:59:34.384Z,6.20
2019-03-18T21:04:38.368Z,6.10
2019-03-18T21:09:42.136Z,6.10
2019-03-18T21:14:45.920Z,6.10
2019-03-18T21:19:49.673Z,6.20
2019-03-18T21:24:53.377Z,6.20
2019-03-18T21:29:57.746Z,6.20
2019-03-18T21:35:01.662Z,6.30
2019-03-18T21:40:05.740Z,6.60
2019-03-18T21:45:12.103Z,6.60
2019-03-18T21:50:15.890Z,6.60
2019-03-18T21:55:19.717Z,6.40
2019-03-18T22:00:23.801Z,6.20
2019-03-18T22:05:27.569Z,6.20
2019-03-18T22:10:31.297Z,6.20
2019-03-18T22:15:35.068Z,6.40
2019-03-18T22:20:38.841Z,6.50
2019-03-18T22:25:42.643Z,6.60
2019-03-18T22:30:47.071Z,6.50
2019-03-18T22:35:50.811Z,6.50
2019-03-18T22:40:54.790Z,6.50
2019-03-18T22:45:58.479Z,6.20
2019-03-18T22:51:02.188Z,6.20
2019-03-18T22:56:06.198Z,6.10
2019-03-18T23:01:12.399Z,6.10
2019-03-18T23:06:16.354Z,6.20
2019-03-18T23:11:20.600Z,6.30
2019-03-18T23:16:24.495Z,6.30
2019-03-18T23:21:28.553Z,6.20
2019-03-18T23:26:32.581Z,6.30
2019-03-18T23:31:36.585Z,6.40
2019-03-18T23:36:40.350Z,6.40
2019-03-18T23:41:44.266Z,6.30
2019-03-18T23:46:48.168Z,6.20
2019-03-18T23:51:52.216Z,6.20
2019-03-18T23:56:56.241Z,6.20
